sensor_id;sensor_type;location;lat;lon;timestamp;temperature;humidity
22194;DHT22;11262;50.308;9.270;2022-10-17T00:00:49;14.40;99.90
22194;DHT22;11262;50.308;9.270;2022-10-17T00:03:15;14.40;99.90
22194;DHT22;11262;50.308;9.270;2022-10-17T00:05:46;14.60;99.90
22194;DHT22;11262;50.308;9.270;2022-10-17T00:08:13;14.70;99.90
22194;DHT22;11262;50.308;9.270;2022-10-17T00:10:39;14.70;99.90
22194;DHT22;11262;50.308;9.270;2022-10-17T00:13:06;14.90;99.90
22194;DHT22;11262;50.308;9.270;2022-10-17T00:15:32;15.00;99.90
22194;DHT22;11262;50.308;9.270;2022-10-17T00:17:57;14.90;99.90
22194;DHT22;11262;50.308;9.270;2022-10-17T00:20:23;14.90;99.90
22194;DHT22;11262;50.308;9.270;2022-10-17T00:22:49;15.00;99.90
22194;DHT22;11262;50.308;9.270;2022-10-17T00:25:15;15.00;99.90
22194;DHT22;11262;50.308;9.270;2022-10-17T00:27:40;14.90;99.90
22194;DHT22;11262;50.308;9.270;2022-10-17T00:30:10;15.00;99.90
22194;DHT22;11262;50.308;9.270;2022-10-17T00:32:36;15.00;99.90
22194;DHT22;11262;50.308;9.270;2022-10-17T00:35:02;15.10;99.90
22194;DHT22;11262;50.308;9.270;2022-10-17T00:37:29;15.20;99.90
22194;DHT22;11262;50.308;9.270;2022-10-17T00:39:55;15.20;99.90
22194;DHT22;11262;50.308;9.270;2022-10-17T00:42:21;15.30;99.90
22194;DHT22;11262;50.308;9.270;2022-10-17T00:47:17;15.50;99.90
22194;DHT22;11262;50.308;9.270;2022-10-17T00:49:44;15.50;99.90
22194;DHT22;11262;50.308;9.270;2022-10-17T00:52:36;15.60;99.90
22194;DHT22;11262;50.308;9.270;2022-10-17T00:55:10;15.50;99.90
22194;DHT22;11262;50.308;9.270;2022-10-17T00:57:38;15.50;99.90
22194;DHT22;11262;50.308;9.270;2022-10-17T01:00:07;15.50;99.90
22194;DHT22;11262;50.308;9.270;2022-10-17T01:02:33;15.40;99.90
22194;DHT22;11262;50.308;9.270;2022-10-17T01:04:59;15.40;99.90
22194;DHT22;11262;50.308;9.270;2022-10-17T01:07:27;15.50;99.90
22194;DHT22;11262;50.308;9.270;2022-10-17T01:09:53;15.60;99.90
22194;DHT22;11262;50.308;9.270;2022-10-17T01:17:48;16.10;99.90
22194;DHT22;11262;50.308;9.270;2022-10-17T01:34:13;15.80;99.90
22194;DHT22;11262;50.308;9.270;2022-10-17T01:36:55;15.60;99.90
22194;DHT22;11262;50.308;9.270;2022-10-17T01:39:41;15.40;99.90
22194;DHT22;11262;50.308;9.270;2022-10-17T01:45:00;15.10;99.90
22194;DHT22;11262;50.308;9.270;2022-10-17T01:47:30;15.00;99.90
22194;DHT22;11262;50.308;9.270;2022-10-17T01:50:03;15.00;99.90
22194;DHT22;11262;50.308;9.270;2022-10-17T01:52:40;15.00;99.90
22194;DHT22;11262;50.308;9.270;2022-10-17T01:55:08;14.90;99.90
22194;DHT22;11262;50.308;9.270;2022-10-17T01:57:40;14.80;99.90
22194;DHT22;11262;50.308;9.270;2022-10-17T02:00:10;14.70;99.90
22194;DHT22;11262;50.308;9.270;2022-10-17T02:02:38;14.70;99.90
22194;DHT22;11262;50.308;9.270;2022-10-17T02:05:06;14.60;99.90
22194;DHT22;11262;50.308;9.270;2022-10-17T02:07:32;14.60;99.90
22194;DHT22;11262;50.308;9.270;2022-10-17T02:09:58;14.50;99.90
22194;DHT22;11262;50.308;9.270;2022-10-17T02:15:45;14.50;99.90
22194;DHT22;11262;50.308;9.270;2022-10-17T02:20:54;14.50;99.90
22194;DHT22;11262;50.308;9.270;2022-10-17T02:25:59;14.40;99.90
22194;DHT22;11262;50.308;9.270;2022-10-17T02:29:01;14.30;99.90
22194;DHT22;11262;50.308;9.270;2022-10-17T02:31:39;14.30;99.90
22194;DHT22;11262;50.308;9.270;2022-10-17T02:34:21;14.30;99.90
22194;DHT22;11262;50.308;9.270;2022-10-17T02:36:51;14.30;99.90
22194;DHT22;11262;50.308;9.270;2022-10-17T02:39:19;14.20;99.90
22194;DHT22;11262;50.308;9.270;2022-10-17T02:41:47;14.20;99.90
22194;DHT22;11262;50.308;9.270;2022-10-17T02:44:14;14.20;99.90
22194;DHT22;11262;50.308;9.270;2022-10-17T02:46:41;14.10;99.90
22194;DHT22;11262;50.308;9.270;2022-10-17T02:49:27;14.10;99.90
22194;DHT22;11262;50.308;9.270;2022-10-17T02:52:05;14.10;99.90
22194;DHT22;11262;50.308;9.270;2022-10-17T02:54:47;14.10;99.90
22194;DHT22;11262;50.308;9.270;2022-10-17T02:57:21;14.00;99.90
22194;DHT22;11262;50.308;9.270;2022-10-17T02:59:48;13.90;99.90
22194;DHT22;11262;50.308;9.270;2022-10-17T03:02:14;13.90;99.90
22194;DHT22;11262;50.308;9.270;2022-10-17T03:04:44;13.80;99.90
22194;DHT22;11262;50.308;9.270;2022-10-17T03:07:10;13.80;99.90
22194;DHT22;11262;50.308;9.270;2022-10-17T03:09:36;13.80;99.90
22194;DHT22;11262;50.308;9.270;2022-10-17T03:12:01;13.70;99.90
22194;DHT22;11262;50.308;9.270;2022-10-17T03:14:27;13.70;99.90
22194;DHT22;11262;50.308;9.270;2022-10-17T03:16:53;13.70;99.90
22194;DHT22;11262;50.308;9.270;2022-10-17T03:19:18;13.60;99.90
22194;DHT22;11262;50.308;9.270;2022-10-17T03:21:44;13.70;99.90
22194;DHT22;11262;50.308;9.270;2022-10-17T03:24:09;13.70;99.90
22194;DHT22;11262;50.308;9.270;2022-10-17T03:26:35;13.60;99.90
22194;DHT22;11262;50.308;9.270;2022-10-17T03:29:01;13.60;99.90
22194;DHT22;11262;50.308;9.270;2022-10-17T03:31:26;13.60;99.90
22194;DHT22;11262;50.308;9.270;2022-10-17T03:33:52;13.50;99.90
22194;DHT22;11262;50.308;9.270;2022-10-17T03:36:18;13.60;99.90
22194;DHT22;11262;50.308;9.270;2022-10-17T03:38:44;13.50;99.90
22194;DHT22;11262;50.308;9.270;2022-10-17T03:41:11;13.50;99.90
22194;DHT22;11262;50.308;9.270;2022-10-17T03:43:37;13.60;99.90
22194;DHT22;11262;50.308;9.270;2022-10-17T03:46:03;13.60;99.90
22194;DHT22;11262;50.308;9.270;2022-10-17T03:48:30;13.50;99.90
22194;DHT22;11262;50.308;9.270;2022-10-17T03:51:04;13.50;99.90
22194;DHT22;11262;50.308;9.270;2022-10-17T03:53:30;13.50;99.90
22194;DHT22;11262;50.308;9.270;2022-10-17T03:55:56;13.40;99.90
22194;DHT22;11262;50.308;9.270;2022-10-17T03:58:22;13.40;99.90
22194;DHT22;11262;50.308;9.270;2022-10-17T04:00:47;13.30;99.90
22194;DHT22;11262;50.308;9.270;2022-10-17T04:03:13;13.30;99.90
22194;DHT22;11262;50.308;9.270;2022-10-17T04:05:39;13.30;99.90
22194;DHT22;11262;50.308;9.270;2022-10-17T04:08:04;13.20;99.90
22194;DHT22;11262;50.308;9.270;2022-10-17T04:10:30;13.20;99.90
22194;DHT22;11262;50.308;9.270;2022-10-17T04:12:55;13.20;99.90
22194;DHT22;11262;50.308;9.270;2022-10-17T04:15:21;13.20;99.90
22194;DHT22;11262;50.308;9.270;2022-10-17T04:17:46;13.20;99.90
22194;DHT22;11262;50.308;9.270;2022-10-17T04:20:12;13.20;99.90
22194;DHT22;11262;50.308;9.270;2022-10-17T04:22:38;13.10;99.90
22194;DHT22;11262;50.308;9.270;2022-10-17T04:25:03;13.10;99.90
22194;DHT22;11262;50.308;9.270;2022-10-17T04:27:29;13.10;99.90
22194;DHT22;11262;50.308;9.270;2022-10-17T04:29:55;13.10;99.90
22194;DHT22;11262;50.308;9.270;2022-10-17T04:32:21;13.10;99.90
22194;DHT22;11262;50.308;9.270;2022-10-17T04:34:49;13.10;99.90
22194;DHT22;11262;50.308;9.270;2022-10-17T04:37:15;13.00;99.90
22194;DHT22;11262;50.308;9.270;2022-10-17T04:39:40;13.00;99.90
22194;DHT22;11262;50.308;9.270;2022-10-17T04:42:06;13.00;99.90
22194;DHT22;11262;50.308;9.270;2022-10-17T04:44:32;13.10;99.90
22194;DHT22;11262;50.308;9.270;2022-10-17T04:46:58;13.10;99.90
22194;DHT22;11262;50.308;9.270;2022-10-17T04:49:24;13.10;99.90
22194;DHT22;11262;50.308;9.270;2022-10-17T04:51:49;13.10;99.90
22194;DHT22;11262;50.308;9.270;2022-10-17T04:54:15;13.10;99.90
22194;DHT22;11262;50.308;9.270;2022-10-17T04:56:40;13.20;99.90
22194;DHT22;11262;50.308;9.270;2022-10-17T04:59:06;13.20;99.90
22194;DHT22;11262;50.308;9.270;2022-10-17T05:01:31;13.20;99.90
22194;DHT22;11262;50.308;9.270;2022-10-17T05:03:57;13.10;99.90
22194;DHT22;11262;50.308;9.270;2022-10-17T05:06:24;13.10;99.90
22194;DHT22;11262;50.308;9.270;2022-10-17T05:08:50;13.10;99.90
22194;DHT22;11262;50.308;9.270;2022-10-17T05:11:24;13.10;99.90
22194;DHT22;11262;50.308;9.270;2022-10-17T05:13:58;13.10;99.90
22194;DHT22;11262;50.308;9.270;2022-10-17T05:16:25;13.10;99.90
22194;DHT22;11262;50.308;9.270;2022-10-17T05:18:53;13.00;99.90
22194;DHT22;11262;50.308;9.270;2022-10-17T05:21:20;13.00;99.90
22194;DHT22;11262;50.308;9.270;2022-10-17T05:23:46;13.00;99.90
22194;DHT22;11262;50.308;9.270;2022-10-17T05:26:12;13.00;99.90
22194;DHT22;11262;50.308;9.270;2022-10-17T05:28:37;13.00;99.90
22194;DHT22;11262;50.308;9.270;2022-10-17T05:31:04;12.90;99.90
22194;DHT22;11262;50.308;9.270;2022-10-17T05:33:30;12.90;99.90
22194;DHT22;11262;50.308;9.270;2022-10-17T05:35:56;12.90;99.90
22194;DHT22;11262;50.308;9.270;2022-10-17T05:38:22;12.90;99.90
22194;DHT22;11262;50.308;9.270;2022-10-17T05:40:47;12.80;99.90
22194;DHT22;11262;50.308;9.270;2022-10-17T05:43:13;12.80;99.90
22194;DHT22;11262;50.308;9.270;2022-10-17T05:45:39;12.80;99.90
22194;DHT22;11262;50.308;9.270;2022-10-17T05:48:05;12.80;99.90
22194;DHT22;11262;50.308;9.270;2022-10-17T05:50:31;12.70;99.90
22194;DHT22;11262;50.308;9.270;2022-10-17T05:52:57;12.70;99.90
22194;DHT22;11262;50.308;9.270;2022-10-17T05:55:22;12.70;99.90
22194;DHT22;11262;50.308;9.270;2022-10-17T05:57:48;12.70;99.90
22194;DHT22;11262;50.308;9.270;2022-10-17T06:00:15;12.80;99.90
22194;DHT22;11262;50.308;9.270;2022-10-17T06:02:41;12.70;99.90
22194;DHT22;11262;50.308;9.270;2022-10-17T06:05:07;12.70;99.90
22194;DHT22;11262;50.308;9.270;2022-10-17T06:07:34;12.80;99.90
22194;DHT22;11262;50.308;9.270;2022-10-17T06:10:00;13.00;99.90
22194;DHT22;11262;50.308;9.270;2022-10-17T06:12:25;13.10;99.90
22194;DHT22;11262;50.308;9.270;2022-10-17T06:14:51;13.10;99.90
22194;DHT22;11262;50.308;9.270;2022-10-17T06:17:16;13.10;99.90
22194;DHT22;11262;50.308;9.270;2022-10-17T06:19:42;13.10;99.90
22194;DHT22;11262;50.308;9.270;2022-10-17T06:22:09;13.10;99.90
22194;DHT22;11262;50.308;9.270;2022-10-17T06:24:34;13.10;99.90
22194;DHT22;11262;50.308;9.270;2022-10-17T06:27:00;13.10;99.90
22194;DHT22;11262;50.308;9.270;2022-10-17T06:29:25;13.00;99.90
22194;DHT22;11262;50.308;9.270;2022-10-17T06:31:51;13.00;99.90
22194;DHT22;11262;50.308;9.270;2022-10-17T06:34:17;13.10;99.90
22194;DHT22;11262;50.308;9.270;2022-10-17T06:36:43;13.10;99.90
22194;DHT22;11262;50.308;9.270;2022-10-17T06:39:08;13.10;99.90
22194;DHT22;11262;50.308;9.270;2022-10-17T06:41:34;13.10;99.90
22194;DHT22;11262;50.308;9.270;2022-10-17T06:44:00;13.20;99.90
22194;DHT22;11262;50.308;9.270;2022-10-17T06:46:25;13.30;99.90
22194;DHT22;11262;50.308;9.270;2022-10-17T06:48:54;13.30;99.90
22194;DHT22;11262;50.308;9.270;2022-10-17T06:51:19;13.40;99.90
22194;DHT22;11262;50.308;9.270;2022-10-17T06:53:45;13.40;99.90
22194;DHT22;11262;50.308;9.270;2022-10-17T06:56:11;13.50;99.90
22194;DHT22;11262;50.308;9.270;2022-10-17T06:58:38;13.50;99.90
22194;DHT22;11262;50.308;9.270;2022-10-17T07:01:07;13.60;99.90
22194;DHT22;11262;50.308;9.270;2022-10-17T07:03:32;13.60;99.90
22194;DHT22;11262;50.308;9.270;2022-10-17T07:05:58;13.70;99.90
22194;DHT22;11262;50.308;9.270;2022-10-17T07:08:25;13.80;99.90
22194;DHT22;11262;50.308;9.270;2022-10-17T07:10:50;13.90;99.90
22194;DHT22;11262;50.308;9.270;2022-10-17T07:13:17;14.00;99.90
22194;DHT22;11262;50.308;9.270;2022-10-17T07:15:42;14.00;99.90
22194;DHT22;11262;50.308;9.270;2022-10-17T07:18:08;14.10;99.90
22194;DHT22;11262;50.308;9.270;2022-10-17T07:20:34;14.20;99.90
22194;DHT22;11262;50.308;9.270;2022-10-17T07:23:00;14.30;99.90
22194;DHT22;11262;50.308;9.270;2022-10-17T07:25:26;14.40;99.90
22194;DHT22;11262;50.308;9.270;2022-10-17T07:27:52;14.50;99.90
22194;DHT22;11262;50.308;9.270;2022-10-17T07:30:18;14.60;99.90
22194;DHT22;11262;50.308;9.270;2022-10-17T07:32:44;14.70;99.90
22194;DHT22;11262;50.308;9.270;2022-10-17T07:35:10;14.80;99.90
22194;DHT22;11262;50.308;9.270;2022-10-17T07:37:37;14.80;99.90
22194;DHT22;11262;50.308;9.270;2022-10-17T07:40:05;14.90;99.90
22194;DHT22;11262;50.308;9.270;2022-10-17T07:42:32;15.00;99.90
22194;DHT22;11262;50.308;9.270;2022-10-17T07:44:57;15.10;99.90
22194;DHT22;11262;50.308;9.270;2022-10-17T07:47:23;15.20;99.90
22194;DHT22;11262;50.308;9.270;2022-10-17T07:49:49;15.30;99.90
22194;DHT22;11262;50.308;9.270;2022-10-17T07:52:15;15.40;99.90
22194;DHT22;11262;50.308;9.270;2022-10-17T07:54:41;15.50;99.90
22194;DHT22;11262;50.308;9.270;2022-10-17T07:57:07;15.50;99.90
22194;DHT22;11262;50.308;9.270;2022-10-17T07:59:34;15.60;99.90
22194;DHT22;11262;50.308;9.270;2022-10-17T08:02:01;15.70;99.90
22194;DHT22;11262;50.308;9.270;2022-10-17T08:04:27;15.70;99.90
22194;DHT22;11262;50.308;9.270;2022-10-17T08:06:52;15.80;99.90
22194;DHT22;11262;50.308;9.270;2022-10-17T08:09:18;16.00;99.90
22194;DHT22;11262;50.308;9.270;2022-10-17T08:11:44;16.00;99.90
22194;DHT22;11262;50.308;9.270;2022-10-17T08:14:11;16.20;99.90
22194;DHT22;11262;50.308;9.270;2022-10-17T08:16:36;16.30;99.90
22194;DHT22;11262;50.308;9.270;2022-10-17T08:19:02;16.40;99.90
22194;DHT22;11262;50.308;9.270;2022-10-17T08:21:28;16.60;99.90
22194;DHT22;11262;50.308;9.270;2022-10-17T08:23:54;16.80;99.90
22194;DHT22;11262;50.308;9.270;2022-10-17T08:26:20;17.00;99.90
22194;DHT22;11262;50.308;9.270;2022-10-17T08:28:46;17.20;99.90
22194;DHT22;11262;50.308;9.270;2022-10-17T08:31:14;17.30;99.90
22194;DHT22;11262;50.308;9.270;2022-10-17T08:33:42;17.50;99.90
22194;DHT22;11262;50.308;9.270;2022-10-17T08:36:08;17.60;99.90
22194;DHT22;11262;50.308;9.270;2022-10-17T08:38:35;17.80;99.90
22194;DHT22;11262;50.308;9.270;2022-10-17T08:41:04;18.00;99.90
22194;DHT22;11262;50.308;9.270;2022-10-17T08:46:03;18.30;99.90
22194;DHT22;11262;50.308;9.270;2022-10-17T08:48:33;18.40;99.90
22194;DHT22;11262;50.308;9.270;2022-10-17T08:53:48;18.60;99.90
22194;DHT22;11262;50.308;9.270;2022-10-17T08:56:22;18.70;99.90
22194;DHT22;11262;50.308;9.270;2022-10-17T08:58:48;18.70;99.90
22194;DHT22;11262;50.308;9.270;2022-10-17T09:06:49;18.70;99.90
22194;DHT22;11262;50.308;9.270;2022-10-17T09:20:13;19.10;99.90
22194;DHT22;11262;50.308;9.270;2022-10-17T09:22:55;19.20;99.90
22194;DHT22;11262;50.308;9.270;2022-10-17T09:25:21;19.30;99.90
22194;DHT22;11262;50.308;9.270;2022-10-17T09:27:55;19.50;99.90
22194;DHT22;11262;50.308;9.270;2022-10-17T09:31:41;19.50;99.90
22194;DHT22;11262;50.308;9.270;2022-10-17T09:33:48;19.50;99.90
22194;DHT22;11262;50.308;9.270;2022-10-17T09:36:20;19.50;99.90
22194;DHT22;11262;50.308;9.270;2022-10-17T09:38:57;19.70;99.90
22194;DHT22;11262;50.308;9.270;2022-10-17T09:41:35;19.90;99.90
22194;DHT22;11262;50.308;9.270;2022-10-17T09:44:29;20.00;99.90
22194;DHT22;11262;50.308;9.270;2022-10-17T09:49:39;20.20;99.90
22194;DHT22;11262;50.308;9.270;2022-10-17T09:52:13;20.20;99.90
22194;DHT22;11262;50.308;9.270;2022-10-17T09:54:57;20.20;99.90
22194;DHT22;11262;50.308;9.270;2022-10-17T09:57:23;20.20;99.90
22194;DHT22;11262;50.308;9.270;2022-10-17T10:00:01;20.20;99.90
22194;DHT22;11262;50.308;9.270;2022-10-17T10:02:28;20.20;99.90
22194;DHT22;11262;50.308;9.270;2022-10-17T10:05:18;20.10;99.90
22194;DHT22;11262;50.308;9.270;2022-10-17T10:08:16;20.30;99.90
22194;DHT22;11262;50.308;9.270;2022-10-17T10:10:42;20.50;99.90
22194;DHT22;11262;50.308;9.270;2022-10-17T10:15:39;20.90;99.90
22194;DHT22;11262;50.308;9.270;2022-10-17T10:21:18;21.30;99.90
22194;DHT22;11262;50.308;9.270;2022-10-17T10:31:49;21.90;99.90
22194;DHT22;11262;50.308;9.270;2022-10-17T10:34:27;22.20;99.90
22194;DHT22;11262;50.308;9.270;2022-10-17T10:37:17;22.40;99.90
22194;DHT22;11262;50.308;9.270;2022-10-17T10:39:50;22.60;99.90
22194;DHT22;11262;50.308;9.270;2022-10-17T10:44:47;22.80;99.90
22194;DHT22;11262;50.308;9.270;2022-10-17T10:49:43;23.10;99.90
22194;DHT22;11262;50.308;9.270;2022-10-17T10:52:14;23.20;99.90
22194;DHT22;11262;50.308;9.270;2022-10-17T10:54:54;23.20;99.90
22194;DHT22;11262;50.308;9.270;2022-10-17T10:57:24;23.30;99.90
22194;DHT22;11262;50.308;9.270;2022-10-17T11:02:38;23.50;99.90
22194;DHT22;11262;50.308;9.270;2022-10-17T11:05:14;23.60;99.90
22194;DHT22;11262;50.308;9.270;2022-10-17T11:07:51;23.70;99.90
22194;DHT22;11262;50.308;9.270;2022-10-17T11:13:16;24.00;99.90
22194;DHT22;11262;50.308;9.270;2022-10-17T11:18:44;23.90;99.90
22194;DHT22;11262;50.308;9.270;2022-10-17T11:21:15;23.70;99.90
22194;DHT22;11262;50.308;9.270;2022-10-17T11:24:09;23.90;99.90
22194;DHT22;11262;50.308;9.270;2022-10-17T11:26:42;23.90;99.90
22194;DHT22;11262;50.308;9.270;2022-10-17T11:29:11;23.70;99.90
22194;DHT22;11262;50.308;9.270;2022-10-17T11:31:42;23.80;99.90
22194;DHT22;11262;50.308;9.270;2022-10-17T11:34:13;24.10;99.90
22194;DHT22;11262;50.308;9.270;2022-10-17T11:36:46;24.00;99.90
22194;DHT22;11262;50.308;9.270;2022-10-17T11:39:32;23.90;99.90
22194;DHT22;11262;50.308;9.270;2022-10-17T11:42:09;23.90;99.90
22194;DHT22;11262;50.308;9.270;2022-10-17T11:44:38;24.00;99.90
22194;DHT22;11262;50.308;9.270;2022-10-17T11:50:02;24.30;99.90
22194;DHT22;11262;50.308;9.270;2022-10-17T11:52:44;24.30;99.90
22194;DHT22;11262;50.308;9.270;2022-10-17T11:55:18;24.40;99.90
22194;DHT22;11262;50.308;9.270;2022-10-17T12:06:01;24.30;99.90
22194;DHT22;11262;50.308;9.270;2022-10-17T12:14:44;24.60;99.90
22194;DHT22;11262;50.308;9.270;2022-10-17T12:19:45;24.20;99.90
22194;DHT22;11262;50.308;9.270;2022-10-17T12:22:25;24.20;99.90
22194;DHT22;11262;50.308;9.270;2022-10-17T12:24:58;24.30;99.90
22194;DHT22;11262;50.308;9.270;2022-10-17T12:30:24;24.20;99.90
22194;DHT22;11262;50.308;9.270;2022-10-17T12:32:59;24.50;99.90
22194;DHT22;11262;50.308;9.270;2022-10-17T12:35:28;24.30;99.90
22194;DHT22;11262;50.308;9.270;2022-10-17T12:45:50;24.60;99.90
22194;DHT22;11262;50.308;9.270;2022-10-17T12:53:49;23.70;99.90
22194;DHT22;11262;50.308;9.270;2022-10-17T12:56:35;23.70;99.90
22194;DHT22;11262;50.308;9.270;2022-10-17T12:59:27;23.50;99.90
22194;DHT22;11262;50.308;9.270;2022-10-17T13:01:56;23.40;99.90
22194;DHT22;11262;50.308;9.270;2022-10-17T13:04:23;23.60;99.90
22194;DHT22;11262;50.308;9.270;2022-10-17T13:06:55;23.70;99.90
22194;DHT22;11262;50.308;9.270;2022-10-17T13:09:34;23.90;99.90
22194;DHT22;11262;50.308;9.270;2022-10-17T13:12:04;24.10;99.90
22194;DHT22;11262;50.308;9.270;2022-10-17T13:14:32;24.20;99.90
22194;DHT22;11262;50.308;9.270;2022-10-17T13:17:04;24.50;99.90
22194;DHT22;11262;50.308;9.270;2022-10-17T13:19:42;24.50;99.90
22194;DHT22;11262;50.308;9.270;2022-10-17T13:22:21;24.50;99.90
22194;DHT22;11262;50.308;9.270;2022-10-17T13:24:48;24.50;99.90
22194;DHT22;11262;50.308;9.270;2022-10-17T13:27:27;24.60;99.90
22194;DHT22;11262;50.308;9.270;2022-10-17T13:29:56;24.30;99.90
22194;DHT22;11262;50.308;9.270;2022-10-17T13:32:23;24.50;99.90
22194;DHT22;11262;50.308;9.270;2022-10-17T13:35:09;24.50;99.90
22194;DHT22;11262;50.308;9.270;2022-10-17T13:37:35;24.50;99.90
22194;DHT22;11262;50.308;9.270;2022-10-17T13:40:02;24.90;99.90
22194;DHT22;11262;50.308;9.270;2022-10-17T13:42:34;24.90;99.90
22194;DHT22;11262;50.308;9.270;2022-10-17T13:45:01;25.10;99.90
22194;DHT22;11262;50.308;9.270;2022-10-17T13:47:29;25.20;99.90
22194;DHT22;11262;50.308;9.270;2022-10-17T13:49:57;25.20;99.90
22194;DHT22;11262;50.308;9.270;2022-10-17T13:52:27;25.00;99.90
22194;DHT22;11262;50.308;9.270;2022-10-17T13:54:54;24.70;99.90
22194;DHT22;11262;50.308;9.270;2022-10-17T13:57:26;24.70;99.90
22194;DHT22;11262;50.308;9.270;2022-10-17T14:00:18;25.00;99.90
22194;DHT22;11262;50.308;9.270;2022-10-17T14:02:44;25.20;99.90
22194;DHT22;11262;50.308;9.270;2022-10-17T14:05:18;25.10;99.90
22194;DHT22;11262;50.308;9.270;2022-10-17T14:07:58;25.40;99.90
22194;DHT22;11262;50.308;9.270;2022-10-17T14:12:56;25.50;99.90
22194;DHT22;11262;50.308;9.270;2022-10-17T14:15:26;25.50;99.90
22194;DHT22;11262;50.308;9.270;2022-10-17T14:17:55;25.80;99.90
22194;DHT22;11262;50.308;9.270;2022-10-17T14:20:22;26.20;99.90
22194;DHT22;11262;50.308;9.270;2022-10-17T14:22:48;26.70;99.90
22194;DHT22;11262;50.308;9.270;2022-10-17T14:25:31;27.20;99.90
22194;DHT22;11262;50.308;9.270;2022-10-17T14:30:47;26.80;99.90
22194;DHT22;11262;50.308;9.270;2022-10-17T14:33:23;26.90;99.90
22194;DHT22;11262;50.308;9.270;2022-10-17T14:35:50;26.70;99.90
22194;DHT22;11262;50.308;9.270;2022-10-17T14:38:17;26.70;99.90
22194;DHT22;11262;50.308;9.270;2022-10-17T14:40:55;26.60;99.90
22194;DHT22;11262;50.308;9.270;2022-10-17T14:43:24;26.40;99.90
22194;DHT22;11262;50.308;9.270;2022-10-17T14:45:51;26.50;99.90
22194;DHT22;11262;50.308;9.270;2022-10-17T14:48:19;26.70;99.90
22194;DHT22;11262;50.308;9.270;2022-10-17T14:51:08;27.30;99.90
22194;DHT22;11262;50.308;9.270;2022-10-17T14:53:34;28.00;99.90
22194;DHT22;11262;50.308;9.270;2022-10-17T14:56:03;27.90;99.90
22194;DHT22;11262;50.308;9.270;2022-10-17T14:58:32;28.20;99.90
22194;DHT22;11262;50.308;9.270;2022-10-17T15:00:59;27.90;99.90
22194;DHT22;11262;50.308;9.270;2022-10-17T15:03:25;28.10;99.90
22194;DHT22;11262;50.308;9.270;2022-10-17T15:05:52;28.60;99.90
22194;DHT22;11262;50.308;9.270;2022-10-17T15:08:20;29.10;99.90
22194;DHT22;11262;50.308;9.270;2022-10-17T15:10:47;29.20;99.90
22194;DHT22;11262;50.308;9.270;2022-10-17T15:13:13;29.50;99.90
22194;DHT22;11262;50.308;9.270;2022-10-17T15:15:40;28.70;99.90
22194;DHT22;11262;50.308;9.270;2022-10-17T15:18:08;28.70;99.90
22194;DHT22;11262;50.308;9.270;2022-10-17T15:20:35;28.10;99.90
22194;DHT22;11262;50.308;9.270;2022-10-17T15:23:01;28.10;99.90
22194;DHT22;11262;50.308;9.270;2022-10-17T15:25:28;28.00;99.90
22194;DHT22;11262;50.308;9.270;2022-10-17T15:27:55;28.00;99.90
22194;DHT22;11262;50.308;9.270;2022-10-17T15:30:28;28.30;99.90
22194;DHT22;11262;50.308;9.270;2022-10-17T15:32:54;28.20;99.90
22194;DHT22;11262;50.308;9.270;2022-10-17T15:35:20;27.80;99.90
22194;DHT22;11262;50.308;9.270;2022-10-17T15:37:46;27.40;99.90
22194;DHT22;11262;50.308;9.270;2022-10-17T15:40:18;27.10;99.90
22194;DHT22;11262;50.308;9.270;2022-10-17T15:42:44;26.60;99.90
22194;DHT22;11262;50.308;9.270;2022-10-17T15:45:11;25.80;99.90
22194;DHT22;11262;50.308;9.270;2022-10-17T15:47:40;25.10;99.90
22194;DHT22;11262;50.308;9.270;2022-10-17T15:50:06;24.50;99.90
22194;DHT22;11262;50.308;9.270;2022-10-17T15:52:33;23.90;99.90
22194;DHT22;11262;50.308;9.270;2022-10-17T15:54:59;23.60;99.90
22194;DHT22;11262;50.308;9.270;2022-10-17T15:57:26;23.40;99.90
22194;DHT22;11262;50.308;9.270;2022-10-17T15:59:53;22.90;99.90
22194;DHT22;11262;50.308;9.270;2022-10-17T16:02:22;22.70;99.90
22194;DHT22;11262;50.308;9.270;2022-10-17T16:04:48;22.40;99.90
22194;DHT22;11262;50.308;9.270;2022-10-17T16:07:15;22.30;99.90
22194;DHT22;11262;50.308;9.270;2022-10-17T16:09:41;22.20;99.90
22194;DHT22;11262;50.308;9.270;2022-10-17T16:12:12;22.10;99.90
22194;DHT22;11262;50.308;9.270;2022-10-17T16:14:39;21.90;99.90
22194;DHT22;11262;50.308;9.270;2022-10-17T16:17:05;21.60;99.90
22194;DHT22;11262;50.308;9.270;2022-10-17T16:19:30;21.50;99.90
22194;DHT22;11262;50.308;9.270;2022-10-17T16:21:57;21.40;99.90
22194;DHT22;11262;50.308;9.270;2022-10-17T16:24:23;21.30;99.90
22194;DHT22;11262;50.308;9.270;2022-10-17T16:26:49;21.10;99.90
22194;DHT22;11262;50.308;9.270;2022-10-17T16:29:15;21.00;99.90
22194;DHT22;11262;50.308;9.270;2022-10-17T16:31:43;20.80;99.90
22194;DHT22;11262;50.308;9.270;2022-10-17T16:34:11;20.70;99.90
22194;DHT22;11262;50.308;9.270;2022-10-17T16:36:41;20.50;99.90
22194;DHT22;11262;50.308;9.270;2022-10-17T16:39:07;20.30;99.90
22194;DHT22;11262;50.308;9.270;2022-10-17T16:41:35;20.10;99.90
22194;DHT22;11262;50.308;9.270;2022-10-17T16:44:04;20.00;99.90
22194;DHT22;11262;50.308;9.270;2022-10-17T16:46:31;19.90;99.90
22194;DHT22;11262;50.308;9.270;2022-10-17T16:48:57;19.90;99.90
22194;DHT22;11262;50.308;9.270;2022-10-17T16:51:23;19.70;99.90
22194;DHT22;11262;50.308;9.270;2022-10-17T16:53:51;19.70;99.90
22194;DHT22;11262;50.308;9.270;2022-10-17T16:56:21;19.70;99.90
22194;DHT22;11262;50.308;9.270;2022-10-17T16:58:47;19.60;99.90
22194;DHT22;11262;50.308;9.270;2022-10-17T17:01:16;19.60;99.90
22194;DHT22;11262;50.308;9.270;2022-10-17T17:03:45;19.50;99.90
22194;DHT22;11262;50.308;9.270;2022-10-17T17:06:13;19.40;99.90
22194;DHT22;11262;50.308;9.270;2022-10-17T17:08:40;19.40;99.90
22194;DHT22;11262;50.308;9.270;2022-10-17T17:11:07;19.30;99.90
22194;DHT22;11262;50.308;9.270;2022-10-17T17:13:33;19.30;99.90
22194;DHT22;11262;50.308;9.270;2022-10-17T17:16:10;19.20;99.90
22194;DHT22;11262;50.308;9.270;2022-10-17T17:18:36;19.10;99.90
22194;DHT22;11262;50.308;9.270;2022-10-17T17:21:04;19.10;99.90
22194;DHT22;11262;50.308;9.270;2022-10-17T17:23:32;19.00;99.90
22194;DHT22;11262;50.308;9.270;2022-10-17T17:26:01;19.00;99.90
22194;DHT22;11262;50.308;9.270;2022-10-17T17:28:27;18.90;99.90
22194;DHT22;11262;50.308;9.270;2022-10-17T17:30:53;18.90;99.90
22194;DHT22;11262;50.308;9.270;2022-10-17T17:33:20;18.80;99.90
22194;DHT22;11262;50.308;9.270;2022-10-17T17:35:46;18.80;99.90
22194;DHT22;11262;50.308;9.270;2022-10-17T17:38:12;18.70;99.90
22194;DHT22;11262;50.308;9.270;2022-10-17T17:40:46;18.80;99.90
22194;DHT22;11262;50.308;9.270;2022-10-17T17:43:12;18.70;99.90
22194;DHT22;11262;50.308;9.270;2022-10-17T17:45:38;18.70;99.90
22194;DHT22;11262;50.308;9.270;2022-10-17T17:48:04;18.60;99.90